createdAt,value
2023-01-24T00:02:39.599Z,99.51
2023-01-24T00:07:41.433Z,99.25
2023-01-24T00:12:48.303Z,99.41
2023-01-24T00:17:50.065Z,98.97
2023-01-24T00:22:52.050Z,98.94
2023-01-24T00:27:53.979Z,98.75
2023-01-24T00:32:57.619Z,98.67
2023-01-24T00:37:59.348Z,98.60
2023-01-24T00:43:01.097Z,98.62
2023-01-24T00:48:04.442Z,98.57
2023-01-24T00:53:06.648Z,98.48
2023-01-24T00:58:08.370Z,98.36
2023-01-24T01:03:16.161Z,98.36
2023-01-24T01:08:17.909Z,97.96
2023-01-24T01:13:19.776Z,97.75
2023-01-24T01:18:21.708Z,97.73
2023-01-24T01:23:23.522Z,97.49
2023-01-24T01:28:25.262Z,97.29
2023-01-24T01:33:29.583Z,97.48
2023-01-24T01:38:31.572Z,97.04
2023-01-24T01:43:33.377Z,97.35
2023-01-24T01:48:36.943Z,97.64
2023-01-24T01:54:02.036Z,97.56
2023-01-24T01:59:10.663Z,97.61
2023-01-24T02:04:19.297Z,97.63
2023-01-24T02:09:28.025Z,97.91
2023-01-24T02:14:50.201Z,98.36
2023-01-24T02:20:04.624Z,98.28
2023-01-24T02:25:21.114Z,98.46
2023-01-24T02:30:23.058Z,98.87
2023-01-24T02:35:31.036Z,99.06
2023-01-24T02:40:34.197Z,99.09
2023-01-24T02:45:36.594Z,99.28
2023-01-24T02:50:57.111Z,99.35
2023-01-24T02:56:22.174Z,99.53
2023-01-24T03:01:24.371Z,99.34
2023-01-24T03:06:28.991Z,99.56
2023-01-24T03:11:30.784Z,99.59
2023-01-24T03:16:51.678Z,99.58
2023-01-24T03:22:12.389Z,99.60
2023-01-24T03:27:43.268Z,99.69
2023-01-24T03:33:05.947Z,99.90
2023-01-24T03:38:27.377Z,99.96
2023-01-24T03:43:29.773Z,99.84
2023-01-24T03:48:37.249Z,99.96
2023-01-24T03:53:39.601Z,100.00
2023-01-24T03:58:41.981Z,100.00
2023-01-24T04:03:45.264Z,100.00
2023-01-24T04:08:47.585Z,100.00
2023-01-24T04:13:49.787Z,100.00
2023-01-24T04:18:51.536Z,100.00
2023-01-24T04:23:53.824Z,99.98
2023-01-24T04:28:56.181Z,100.00
2023-01-24T04:33:58.447Z,100.00
2023-01-24T04:39:02.199Z,100.00
2023-01-24T04:44:24.184Z,100.00
2023-01-24T04:49:27.503Z,100.00
2023-01-24T04:54:29.701Z,100.00
2023-01-24T04:59:31.727Z,100.00
2023-01-24T05:04:33.604Z,100.00
2023-01-24T05:09:35.712Z,100.00
2023-01-24T05:14:41.476Z,100.00
2023-01-24T05:19:44.735Z,100.00
2023-01-24T05:24:48.895Z,100.00
2023-01-24T05:29:51.416Z,100.00
2023-01-24T05:34:53.210Z,100.00
2023-01-24T05:39:55.209Z,100.00
2023-01-24T05:44:57.131Z,100.00
2023-01-24T05:49:59.848Z,100.00
2023-01-24T05:55:01.656Z,99.98
2023-01-24T06:00:06.392Z,100.00
2023-01-24T06:05:16.372Z,99.91
2023-01-24T06:10:18.216Z,99.85
2023-01-24T06:15:27.827Z,99.89
2023-01-24T06:20:31.169Z,99.33
2023-01-24T06:25:34.816Z,99.09
2023-01-24T06:30:40.927Z,99.14
2023-01-24T06:35:51.670Z,99.40
2023-01-24T06:41:03.603Z,99.48
2023-01-24T06:46:05.316Z,99.59
2023-01-24T06:51:07.083Z,99.50
2023-01-24T06:56:09.964Z,99.57
2023-01-24T07:01:11.770Z,99.73
2023-01-24T07:06:14.253Z,99.38
2023-01-24T07:11:15.983Z,99.13
2023-01-24T07:16:18.081Z,99.29
2023-01-24T07:21:20.083Z,98.89
2023-01-24T07:26:22.133Z,98.98
2023-01-24T07:31:24.069Z,98.44
2023-01-24T07:36:25.970Z,97.93
2023-01-24T07:41:27.701Z,97.48
2023-01-24T07:46:29.490Z,97.36
2023-01-24T07:51:31.777Z,97.09
2023-01-24T07:56:33.553Z,96.97
2023-01-24T08:01:35.245Z,96.73
2023-01-24T08:06:37.073Z,96.76
2023-01-24T08:11:38.918Z,96.32
2023-01-24T08:16:40.796Z,96.31
2023-01-24T08:21:42.894Z,96.20
2023-01-24T08:26:47.341Z,95.98
2023-01-24T08:31:49.599Z,95.86
2023-01-24T08:36:51.734Z,95.79
2023-01-24T08:41:53.457Z,96.11
2023-01-24T08:46:55.378Z,96.40
2023-01-24T08:52:00.181Z,96.96
2023-01-24T08:57:04.263Z,97.42
2023-01-24T09:02:06.784Z,98.16
2023-01-24T09:07:09.324Z,98.73
2023-01-24T09:12:11.096Z,99.10
2023-01-24T09:17:13.094Z,99.79
2023-01-24T09:22:14.930Z,99.86
2023-01-24T09:27:16.669Z,99.94
2023-01-24T09:32:18.580Z,100.00
2023-01-24T09:37:21.286Z,100.00
2023-01-24T09:42:38.777Z,100.00
2023-01-24T09:47:54.503Z,100.00
2023-01-24T09:52:59.725Z,100.00
2023-01-24T09:58:07.421Z,100.00
2023-01-24T10:03:21.020Z,100.00
2023-01-24T10:08:38.638Z,100.00
2023-01-24T10:13:52.436Z,100.00
2023-01-24T10:19:16.337Z,100.00
2023-01-24T10:24:24.342Z,100.00
2023-01-24T10:29:31.040Z,100.00
2023-01-24T10:34:53.997Z,100.00
2023-01-24T10:39:55.880Z,100.00
2023-01-24T10:45:10.062Z,100.00
2023-01-24T10:50:18.250Z,100.00
2023-01-24T10:55:37.343Z,100.00
2023-01-24T11:00:44.028Z,100.00
2023-01-24T11:05:51.186Z,100.00
2023-01-24T11:10:59.759Z,100.00
2023-01-24T11:16:18.663Z,100.00
2023-01-24T11:21:21.115Z,100.00
2023-01-24T11:26:31.718Z,100.00
2023-01-24T11:31:38.898Z,100.00
2023-01-24T11:37:02.912Z,100.00
2023-01-24T11:42:32.049Z,100.00
2023-01-24T11:47:40.614Z,100.00
2023-01-24T11:52:54.075Z,100.00
2023-01-24T11:58:01.618Z,100.00
2023-01-24T12:03:28.799Z,99.88
2023-01-24T12:08:42.164Z,99.50
2023-01-24T12:13:53.254Z,99.39
2023-01-24T12:19:24.985Z,99.16
2023-01-24T12:24:41.161Z,98.15
2023-01-24T12:30:02.854Z,97.66
2023-01-24T12:35:28.100Z,97.74
2023-01-24T12:40:36.035Z,97.73
2023-01-24T12:46:00.460Z,97.61
2023-01-24T12:51:27.446Z,97.59
2023-01-24T12:56:43.313Z,97.70
2023-01-24T13:02:25.794Z,98.09
2023-01-24T13:07:39.907Z,97.21
2023-01-24T13:12:44.917Z,96.06
2023-01-24T13:18:16.114Z,95.39
2023-01-24T13:23:32.329Z,95.30
2023-01-24T13:28:50.499Z,95.54
2023-01-24T13:33:59.604Z,96.22
2023-01-24T13:39:02.870Z,95.88
2023-01-24T13:44:07.458Z,96.01
2023-01-24T13:49:19.186Z,96.31
2023-01-24T13:54:44.274Z,96.19
2023-01-24T14:00:15.428Z,96.48
2023-01-24T14:05:29.616Z,97.56
2023-01-24T14:10:45.940Z,98.35
2023-01-24T14:15:47.701Z,98.54
2023-01-24T14:20:49.490Z,98.48
2023-01-24T14:25:54.322Z,99.12
2023-01-24T14:30:59.885Z,99.20
2023-01-24T14:36:24.699Z,99.22
2023-01-24T14:41:26.574Z,99.39
2023-01-24T14:46:28.301Z,99.92
2023-01-24T14:51:30.386Z,99.84
2023-01-24T14:56:40.650Z,99.88
2023-01-24T15:01:42.827Z,99.98
2023-01-24T15:06:44.725Z,100.00
2023-01-24T15:11:47.445Z,100.00
2023-01-24T15:16:54.783Z,100.00
2023-01-24T15:21:57.451Z,100.00
2023-01-24T15:27:01.312Z,100.00
2023-01-24T15:32:04.282Z,99.96
2023-01-24T15:37:13.038Z,99.91
2023-01-24T15:42:35.648Z,100.00
2023-01-24T15:47:46.171Z,99.71
2023-01-24T15:53:10.575Z,99.54
2023-01-24T15:58:13.464Z,99.56
2023-01-24T16:03:16.407Z,99.28
2023-01-24T16:08:19.474Z,99.49
2023-01-24T16:13:34.125Z,99.51
2023-01-24T16:18:35.847Z,98.71
2023-01-24T16:23:37.914Z,97.62
2023-01-24T16:28:39.640Z,96.81
2023-01-24T16:33:41.343Z,97.04
2023-01-24T16:38:45.005Z,97.43
2023-01-24T16:43:46.702Z,97.18
2023-01-24T16:48:48.396Z,97.54
2023-01-24T16:53:54.645Z,97.59
2023-01-24T16:58:56.406Z,97.33
2023-01-24T17:03:58.111Z,97.36
2023-01-24T17:08:59.892Z,96.72
2023-01-24T17:14:01.581Z,95.75
2023-01-24T17:19:03.440Z,95.43
2023-01-24T17:24:05.299Z,95.99
2023-01-24T17:29:07.034Z,96.62
2023-01-24T17:34:08.732Z,96.93
2023-01-24T17:39:10.797Z,96.93
2023-01-24T17:44:13.373Z,97.12
2023-01-24T17:49:15.235Z,97.35
2023-01-24T17:54:17.389Z,96.98
2023-01-24T17:59:19.403Z,96.71
2023-01-24T18:04:21.091Z,96.55
2023-01-24T18:09:22.805Z,96.74
2023-01-24T18:14:24.613Z,95.58
2023-01-24T18:19:26.629Z,95.44
2023-01-24T18:24:28.752Z,94.97
2023-01-24T18:29:30.464Z,94.08
2023-01-24T18:34:32.144Z,93.99
2023-01-24T18:39:34.226Z,94.57
2023-01-24T18:44:36.608Z,94.58
2023-01-24T18:49:38.402Z,94.03
2023-01-24T18:54:41.616Z,94.40
2023-01-24T18:59:43.487Z,93.57
2023-01-24T19:04:45.169Z,93.41
2023-01-24T19:09:46.871Z,93.03
2023-01-24T19:14:49.327Z,93.17
2023-01-24T19:19:53.342Z,92.28
2023-01-24T19:24:55.056Z,91.96
2023-01-24T19:29:56.817Z,91.96
2023-01-24T19:34:58.532Z,91.64
2023-01-24T19:40:00.275Z,91.92
2023-01-24T19:45:02.063Z,90.93
2023-01-24T19:50:04.041Z,90.61
2023-01-24T19:55:06.415Z,90.06
2023-01-24T20:00:10.329Z,90.40
2023-01-24T20:05:12.307Z,90.28
2023-01-24T20:10:14.211Z,90.31
2023-01-24T20:15:16.220Z,90.28
2023-01-24T20:20:20.794Z,90.00
2023-01-24T20:25:24.234Z,90.41
2023-01-24T20:30:27.619Z,90.59
2023-01-24T20:35:29.363Z,91.01
2023-01-24T20:40:31.088Z,90.77
2023-01-24T20:45:36.259Z,90.76
2023-01-24T20:50:37.960Z,90.37
2023-01-24T20:55:39.562Z,90.45
2023-01-24T21:00:41.277Z,90.20
2023-01-24T21:05:43.059Z,90.82
2023-01-24T21:10:48.923Z,90.52
2023-01-24T21:15:50.694Z,90.15
2023-01-24T21:20:57.187Z,90.51
2023-01-24T21:26:06.891Z,90.42
2023-01-24T21:31:13.062Z,90.40
2023-01-24T21:36:18.069Z,90.58
2023-01-24T21:41:42.723Z,89.55
2023-01-24T21:46:44.528Z,89.73
2023-01-24T21:51:54.889Z,90.34
2023-01-24T21:57:30.744Z,90.21
2023-01-24T22:02:35.383Z,90.23
2023-01-24T22:07:37.166Z,90.52
2023-01-24T22:12:44.508Z,91.15
2023-01-24T22:17:46.584Z,90.87
2023-01-24T22:23:19.332Z,90.15
2023-01-24T22:28:21.837Z,89.75
2023-01-24T22:33:24.469Z,90.06
2023-01-24T22:38:27.475Z,90.14
2023-01-24T22:43:29.189Z,90.58
2023-01-24T22:48:30.921Z,90.78
2023-01-24T22:53:32.651Z,91.27
2023-01-24T22:58:34.299Z,91.58
2023-01-24T23:03:35.919Z,91.38
2023-01-24T23:08:38.452Z,92.04
2023-01-24T23:13:59.733Z,92.96
2023-01-24T23:19:24.933Z,92.53
2023-01-24T23:24:26.728Z,92.34
2023-01-24T23:29:37.401Z,92.16
2023-01-24T23:34:40.552Z,92.72
2023-01-24T23:39:42.381Z,92.47
2023-01-24T23:44:44.924Z,92.94
2023-01-24T23:49:47.515Z,93.24
2023-01-24T23:54:49.200Z,93.57
2023-01-24T23:59:50.884Z,93.95
